PWSweather.com
Personal Weather Stations
Station Observations
KWABLAIN13
Ptl Weather, Blaine, WA

Ptl WeatherBlaine, WA

Lat: 48.997393, Lon: -122.748614

Elevation: 57

Station Type: Davis Advantage Pro 2

http://www.ptlnet.net

High Low Average
Temperature 59.6°F15.3°C 45.4°F7.4°C 51.8°F11.0°C
Dew Point 49.1°F9.5°C 42.5°F5.8°C 45.7°F7.6°C
Winds 9.0 mph 14.5 kmh Calm Calm 3.0 mph SSW4.8 kmh SSW
Wind Gusts 12.0 mph19.3 kmh -- 6.0 mph9.7 kmh
Humidity 95% 59% 81%
Pressure 30.37 in1028.4 mb 30.03 in1016.9 mb -
Precipitation 0.00 in0.0 mm - -
Hour Temp Dew Point Humidity Winds Wind Gusts Pressure Precip Precip Rate Daily Precip Total
12:04 AM 49.1°F9.5°C 46.0°F7.8°C 89% 2.0 mph SE3.2 kmh SE 6.0 mph9.7 kmh 30.03 in1016.9 mb 0.01 in0.3 mm 0.15 in3.8 mm 0.01 in0.3 mm
12:10 AM 49.0°F9.4°C 46.2°F7.9°C 90% 9.0 mph ESE14.5 kmh ESE 9.0 mph14.5 kmh 30.04 in1017.3 mb 0.01 in0.3 mm 0.00 in0.0 mm 0.01 in0.3 mm
12:25 AM 48.7°F9.3°C 46.2°F7.9°C 91% 4.0 mph E6.4 kmh E 8.0 mph12.9 kmh 30.03 in1016.9 mb 0.03 in0.8 mm 0.08 in2.0 mm 0.03 in0.8 mm
12:30 AM 48.7°F9.3°C 46.5°F8.1°C 92% 5.0 mph ESE8.0 kmh ESE 11.0 mph17.7 kmh 30.03 in1016.9 mb 0.04 in1.0 mm 0.12 in3.0 mm 0.04 in1.0 mm
12:45 AM 48.5°F9.2°C 46.6°F8.1°C 93% 5.0 mph SE8.0 kmh SE 9.0 mph14.5 kmh 30.03 in1016.9 mb 0.04 in1.0 mm 0.00 in0.0 mm 0.04 in1.0 mm
12:50 AM 48.5°F9.2°C 46.6°F8.1°C 93% 6.0 mph S9.7 kmh S 9.0 mph14.5 kmh 30.03 in1016.9 mb 0.04 in1.0 mm 0.00 in0.0 mm 0.04 in1.0 mm
01:05 AM 48.2°F9.0°C 46.3°F7.9°C 93% 5.0 mph SSE8.0 kmh SSE 9.0 mph14.5 kmh 30.04 in1017.3 mb 0.05 in1.3 mm 0.01 in0.3 mm 0.05 in1.3 mm
01:10 AM 48.1°F8.9°C 46.2°F7.9°C 93% 6.0 mph SSE9.7 kmh SSE 9.0 mph14.5 kmh 30.04 in1017.3 mb 0.06 in1.5 mm 0.12 in3.0 mm 0.06 in1.5 mm
01:25 AM 47.8°F8.8°C 45.9°F7.7°C 93% 5.0 mph SE8.0 kmh SE 11.0 mph17.7 kmh 30.03 in1016.9 mb 0.05 in1.3 mm 0.00 in0.0 mm 0.06 in1.5 mm
01:30 AM 47.7°F8.7°C 45.8°F7.7°C 93% 6.0 mph SE9.7 kmh SE 12.0 mph19.3 kmh 30.04 in1017.3 mb 0.05 in1.3 mm 0.00 in0.0 mm 0.06 in1.5 mm
01:44 AM 47.3°F8.5°C 45.7°F7.6°C 94% 6.0 mph SSE9.7 kmh SSE 9.0 mph14.5 kmh 30.05 in1017.6 mb 0.04 in1.0 mm 0.00 in0.0 mm 0.06 in1.5 mm
01:50 AM 47.3°F8.5°C 45.7°F7.6°C 94% 3.0 mph SE4.8 kmh SE 9.0 mph14.5 kmh 30.05 in1017.6 mb 0.04 in1.0 mm 0.00 in0.0 mm 0.06 in1.5 mm
02:05 AM 47.2°F8.4°C 45.6°F7.6°C 94% 4.0 mph SE6.4 kmh SE 6.0 mph9.7 kmh 30.06 in1017.9 mb 0.03 in0.8 mm 0.00 in0.0 mm 0.06 in1.5 mm
02:09 AM 47.2°F8.4°C 45.6°F7.6°C 94% 4.0 mph SE6.4 kmh SE 11.0 mph17.7 kmh 30.06 in1017.9 mb 0.03 in0.8 mm 0.00 in0.0 mm 0.06 in1.5 mm
02:25 AM 47.2°F8.4°C 45.8°F7.7°C 95% 6.0 mph SE9.7 kmh SE 9.0 mph14.5 kmh 30.06 in1017.9 mb 0.02 in0.5 mm 0.00 in0.0 mm 0.06 in1.5 mm
02:30 AM 47.2°F8.4°C 45.8°F7.7°C 95% 4.0 mph SE6.4 kmh SE 9.0 mph14.5 kmh 30.06 in1017.9 mb 0.02 in0.5 mm 0.00 in0.0 mm 0.06 in1.5 mm
02:44 AM 47.1°F8.4°C 45.7°F7.6°C 95% 4.0 mph SE6.4 kmh SE 7.0 mph11.3 kmh 30.06 in1017.9 mb 0.03 in0.8 mm 0.04 in1.0 mm 0.07 in1.8 mm
02:50 AM 47.1°F8.4°C 45.7°F7.6°C 95% 5.0 mph SE8.0 kmh SE 8.0 mph12.9 kmh 30.06 in1017.9 mb 0.03 in0.8 mm 0.00 in0.0 mm 0.07 in1.8 mm
03:05 AM 47.1°F8.4°C 45.7°F7.6°C 95% 3.0 mph SE4.8 kmh SE 8.0 mph12.9 kmh 30.06 in1017.9 mb 0.03 in0.8 mm 0.00 in0.0 mm 0.07 in1.8 mm
03:10 AM 47.1°F8.4°C 45.7°F7.6°C 95% 3.0 mph SSE4.8 kmh SSE 3.0 mph4.8 kmh 30.06 in1017.9 mb 0.03 in0.8 mm 0.00 in0.0 mm 0.07 in1.8 mm
03:25 AM 47.1°F8.4°C 45.7°F7.6°C 95% Calm Calm 7.0 mph11.3 kmh 30.07 in1018.3 mb 0.03 in0.8 mm 0.00 in0.0 mm 0.07 in1.8 mm
03:30 AM 47.1°F8.4°C 45.7°F7.6°C 95% 3.0 mph SE4.8 kmh SE 7.0 mph11.3 kmh 30.07 in1018.3 mb 0.03 in0.8 mm 0.00 in0.0 mm 0.07 in1.8 mm
03:45 AM 47.0°F8.3°C 45.7°F7.6°C 95% 3.0 mph SE4.8 kmh SE 7.0 mph11.3 kmh 30.07 in1018.3 mb 0.04 in1.0 mm 0.04 in1.0 mm 0.08 in2.0 mm
03:50 AM 47.0°F8.3°C 45.7°F7.6°C 95% 3.0 mph SE4.8 kmh SE 3.0 mph4.8 kmh 30.08 in1018.6 mb 0.03 in0.8 mm 0.00 in0.0 mm 0.08 in2.0 mm
03:54 AM 47.0°F8.3°C 45.7°F7.6°C 95% 4.0 mph SE6.4 kmh SE 6.0 mph9.7 kmh 30.08 in1018.6 mb 0.03 in0.8 mm 0.00 in0.0 mm 0.08 in2.0 mm
04:00 AM 47.0°F8.3°C 45.7°F7.6°C 95% 4.0 mph SE6.4 kmh SE 8.0 mph12.9 kmh 30.08 in1018.6 mb 0.03 in0.8 mm 0.00 in0.0 mm 0.08 in2.0 mm
04:15 AM 46.9°F8.3°C 45.6°F7.6°C 95% 5.0 mph SE8.0 kmh SE 9.0 mph14.5 kmh 30.08 in1018.6 mb 0.02 in0.5 mm 0.00 in0.0 mm 0.08 in2.0 mm
04:20 AM 46.8°F8.2°C 45.5°F7.5°C 95% 4.0 mph SE6.4 kmh SE 9.0 mph14.5 kmh 30.08 in1018.6 mb 0.02 in0.5 mm 0.00 in0.0 mm 0.08 in2.0 mm
04:35 AM 46.7°F8.2°C 45.4°F7.4°C 95% 2.0 mph SE3.2 kmh SE 7.0 mph11.3 kmh 30.08 in1018.6 mb 0.02 in0.5 mm 0.00 in0.0 mm 0.08 in2.0 mm
04:39 AM 46.7°F8.2°C 45.4°F7.4°C 95% 4.0 mph SE6.4 kmh SE 7.0 mph11.3 kmh 30.08 in1018.6 mb 0.02 in0.5 mm 0.00 in0.0 mm 0.08 in2.0 mm
04:55 AM 46.6°F8.1°C 45.3°F7.4°C 95% 2.0 mph SE3.2 kmh SE 6.0 mph9.7 kmh 30.08 in1018.6 mb 0.00 in0.0 mm 0.00 in0.0 mm 0.08 in2.0 mm
04:59 AM 46.6°F8.1°C 45.3°F7.4°C 95% 3.0 mph SSE4.8 kmh SSE 6.0 mph9.7 kmh 30.08 in1018.6 mb 0.00 in0.0 mm 0.00 in0.0 mm 0.08 in2.0 mm
05:15 AM 46.5°F8.1°C 45.2°F7.3°C 95% 3.0 mph SE4.8 kmh SE 7.0 mph11.3 kmh 30.08 in1018.6 mb 0.00 in0.0 mm 0.00 in0.0 mm 0.08 in2.0 mm
05:20 AM 46.4°F8.0°C 45.1°F7.3°C 95% 6.0 mph SE9.7 kmh SE 9.0 mph14.5 kmh 30.08 in1018.6 mb 0.00 in0.0 mm 0.00 in0.0 mm 0.08 in2.0 mm
05:35 AM 46.3°F7.9°C 45.0°F7.2°C 95% 6.0 mph ESE9.7 kmh ESE 7.0 mph11.3 kmh 30.09 in1019.0 mb 0.00 in0.0 mm 0.00 in0.0 mm 0.08 in2.0 mm
05:40 AM 46.3°F7.9°C 45.0°F7.2°C 95% 3.0 mph SE4.8 kmh SE 7.0 mph11.3 kmh 30.09 in1019.0 mb 0.00 in0.0 mm 0.00 in0.0 mm 0.08 in2.0 mm
05:55 AM 46.2°F7.9°C 44.9°F7.2°C 95% 4.0 mph SE6.4 kmh SE 6.0 mph9.7 kmh 30.09 in1019.0 mb 0.00 in0.0 mm 0.00 in0.0 mm 0.08 in2.0 mm
06:00 AM 46.2°F7.9°C 44.9°F7.2°C 95% 2.0 mph SE3.2 kmh SE 6.0 mph9.7 kmh 30.09 in1019.0 mb 0.00 in0.0 mm 0.00 in0.0 mm 0.08 in2.0 mm
06:14 AM 46.1°F7.8°C 44.8°F7.1°C 95% 3.0 mph SSE4.8 kmh SSE 9.0 mph14.5 kmh 30.10 in1019.3 mb 0.00 in0.0 mm 0.00 in0.0 mm 0.08 in2.0 mm
06:20 AM 46.1°F7.8°C 44.8°F7.1°C 95% 3.0 mph SE4.8 kmh SE 9.0 mph14.5 kmh 30.10 in1019.3 mb 0.00 in0.0 mm 0.00 in0.0 mm 0.08 in2.0 mm
06:35 AM 46.0°F7.8°C 44.4°F6.9°C 94% 2.0 mph SE3.2 kmh SE 6.0 mph9.7 kmh 30.11 in1019.6 mb 0.01 in0.3 mm 0.04 in1.0 mm 0.09 in2.3 mm
06:40 AM 46.0°F7.8°C 44.4°F6.9°C 94% 2.0 mph SE3.2 kmh SE 7.0 mph11.3 kmh 30.11 in1019.6 mb 0.01 in0.3 mm 0.00 in0.0 mm 0.09 in2.3 mm
06:55 AM 46.1°F7.8°C 44.5°F6.9°C 94% 2.0 mph SE3.2 kmh SE 5.0 mph8.0 kmh 30.11 in1019.6 mb 0.01 in0.3 mm 0.00 in0.0 mm 0.09 in2.3 mm
07:00 AM 46.1°F7.8°C 44.5°F6.9°C 94% 2.0 mph SE3.2 kmh SE 6.0 mph9.7 kmh 30.11 in1019.6 mb 0.01 in0.3 mm 0.00 in0.0 mm 0.09 in2.3 mm
07:15 AM 46.1°F7.8°C 44.8°F7.1°C 95% 3.0 mph SE4.8 kmh SE 4.0 mph6.4 kmh 30.12 in1020.0 mb 0.01 in0.3 mm 0.00 in0.0 mm 0.09 in2.3 mm
07:20 AM 46.2°F7.9°C 44.9°F7.2°C 95% 2.0 mph SE3.2 kmh SE 4.0 mph6.4 kmh 30.12 in1020.0 mb 0.01 in0.3 mm 0.00 in0.0 mm 0.09 in2.3 mm
07:35 AM 46.3°F7.9°C 45.0°F7.2°C 95% Calm Calm 3.0 mph4.8 kmh 30.12 in1020.0 mb 0.01 in0.3 mm 0.00 in0.0 mm 0.09 in2.3 mm
07:40 AM 46.4°F8.0°C 45.1°F7.3°C 95% Calm Calm 3.0 mph4.8 kmh 30.12 in1020.0 mb 0.01 in0.3 mm 0.00 in0.0 mm 0.09 in2.3 mm
07:54 AM 46.6°F8.1°C 45.0°F7.2°C 94% 2.0 mph SE3.2 kmh SE 4.0 mph6.4 kmh 30.13 in1020.3 mb 0.00 in0.0 mm 0.00 in0.0 mm 0.09 in2.3 mm
08:00 AM 46.7°F8.2°C 45.1°F7.3°C 94% Calm Calm 4.0 mph6.4 kmh 30.13 in1020.3 mb 0.00 in0.0 mm 0.00 in0.0 mm 0.09 in2.3 mm
08:15 AM 47.0°F8.3°C 45.4°F7.4°C 94% Calm Calm 2.0 mph3.2 kmh 30.14 in1020.7 mb 0.00 in0.0 mm 0.00 in0.0 mm 0.09 in2.3 mm
08:20 AM 47.1°F8.4°C 45.5°F7.5°C 94% Calm Calm -- 30.14 in1020.7 mb 0.00 in0.0 mm 0.00 in0.0 mm 0.09 in2.3 mm
08:35 AM 48.0°F8.9°C 46.6°F8.1°C 95% 1.0 mph SE1.6 kmh SE 4.0 mph6.4 kmh 30.14 in1020.7 mb 0.00 in0.0 mm 0.00 in0.0 mm 0.09 in2.3 mm
08:40 AM 48.6°F9.2°C 47.2°F8.4°C 95% 4.0 mph SE6.4 kmh SE 4.0 mph6.4 kmh 30.14 in1020.7 mb 0.00 in0.0 mm 0.00 in0.0 mm 0.09 in2.3 mm
08:55 AM 49.7°F9.8°C 46.9°F8.3°C 90% 2.0 mph SSE3.2 kmh SSE 8.0 mph12.9 kmh 30.15 in1021.0 mb 0.00 in0.0 mm 0.00 in0.0 mm 0.09 in2.3 mm
09:00 AM 50.1°F10.1°C 47.6°F8.7°C 91% 6.0 mph SE9.7 kmh SE 8.0 mph12.9 kmh 30.15 in1021.0 mb 0.00 in0.0 mm 0.00 in0.0 mm 0.09 in2.3 mm
09:15 AM 51.3°F10.7°C 48.2°F9.0°C 89% 1.0 mph SW1.6 kmh SW 4.0 mph6.4 kmh 30.15 in1021.0 mb 0.00 in0.0 mm 0.00 in0.0 mm 0.09 in2.3 mm
09:20 AM 51.7°F10.9°C 48.0°F8.9°C 87% 2.0 mph SSW3.2 kmh SSW 5.0 mph8.0 kmh 30.15 in1021.0 mb 0.00 in0.0 mm 0.00 in0.0 mm 0.09 in2.3 mm
09:35 AM 51.5°F10.8°C 46.8°F8.2°C 84% Calm Calm -- 30.16 in1021.3 mb 0.00 in0.0 mm 0.00 in0.0 mm 0.09 in2.3 mm
09:40 AM 51.5°F10.8°C 46.8°F8.2°C 84% Calm Calm -- 30.16 in1021.3 mb 0.00 in0.0 mm 0.00 in0.0 mm 0.09 in2.3 mm
09:55 AM 52.2°F11.2°C 46.9°F8.3°C 82% 3.0 mph WSW4.8 kmh WSW 4.0 mph6.4 kmh 30.16 in1021.3 mb 0.00 in0.0 mm 0.00 in0.0 mm 0.09 in2.3 mm
10:00 AM 52.4°F11.3°C 47.7°F8.7°C 84% 2.0 mph SW3.2 kmh SW 2.0 mph3.2 kmh 30.16 in1021.3 mb 0.00 in0.0 mm 0.00 in0.0 mm 0.09 in2.3 mm
10:15 AM 53.2°F11.8°C 47.9°F8.8°C 82% 4.0 mph SSW6.4 kmh SSW 6.0 mph9.7 kmh 30.17 in1021.7 mb 0.00 in0.0 mm 0.00 in0.0 mm 0.09 in2.3 mm
10:20 AM 53.4°F11.9°C 47.7°F8.7°C 81% 5.0 mph SSW8.0 kmh SSW 5.0 mph8.0 kmh 30.17 in1021.7 mb 0.00 in0.0 mm 0.00 in0.0 mm 0.09 in2.3 mm
10:35 AM 54.0°F12.2°C 47.0°F8.3°C 77% 6.0 mph SW9.7 kmh SW 6.0 mph9.7 kmh 30.17 in1021.7 mb 0.00 in0.0 mm 0.00 in0.0 mm 0.09 in2.3 mm
10:40 AM 54.1°F12.3°C 47.4°F8.6°C 78% 3.0 mph SW4.8 kmh SW 6.0 mph9.7 kmh 30.18 in1022.0 mb 0.00 in0.0 mm 0.00 in0.0 mm 0.09 in2.3 mm
10:55 AM 54.8°F12.7°C 47.4°F8.6°C 76% 6.0 mph SW9.7 kmh SW 7.0 mph11.3 kmh 30.18 in1022.0 mb 0.00 in0.0 mm 0.00 in0.0 mm 0.09 in2.3 mm
11:00 AM 55.0°F12.8°C 47.9°F8.8°C 77% 5.0 mph SW8.0 kmh SW 8.0 mph12.9 kmh 30.18 in1022.0 mb 0.00 in0.0 mm 0.00 in0.0 mm 0.09 in2.3 mm
11:15 AM 55.5°F13.1°C 47.4°F8.6°C 74% 6.0 mph SW9.7 kmh SW 9.0 mph14.5 kmh 30.19 in1022.4 mb 0.00 in0.0 mm 0.00 in0.0 mm 0.09 in2.3 mm
11:20 AM 55.4°F13.0°C 48.0°F8.9°C 76% 6.0 mph SSW9.7 kmh SSW 10.0 mph16.1 kmh 30.19 in1022.4 mb 0.00 in0.0 mm 0.00 in0.0 mm 0.09 in2.3 mm
11:35 AM 55.0°F12.8°C 46.5°F8.1°C 73% 5.0 mph SW8.0 kmh SW 10.0 mph16.1 kmh 30.19 in1022.4 mb 0.00 in0.0 mm 0.00 in0.0 mm 0.09 in2.3 mm
11:40 AM 55.1°F12.8°C 47.3°F8.5°C 75% 4.0 mph SW6.4 kmh SW 10.0 mph16.1 kmh 30.19 in1022.4 mb 0.00 in0.0 mm 0.00 in0.0 mm 0.09 in2.3 mm
11:55 AM 56.2°F13.4°C 48.0°F8.9°C 74% 7.0 mph SW11.3 kmh SW 10.0 mph16.1 kmh 30.20 in1022.7 mb 0.00 in0.0 mm 0.00 in0.0 mm 0.09 in2.3 mm
12:00 PM 56.5°F13.6°C 47.6°F8.7°C 72% 5.0 mph SW8.0 kmh SW 10.0 mph16.1 kmh 30.20 in1022.7 mb 0.00 in0.0 mm 0.00 in0.0 mm 0.09 in2.3 mm
12:15 PM 56.9°F13.8°C 48.4°F9.1°C 73% 6.0 mph SW9.7 kmh SW 12.0 mph19.3 kmh 30.20 in1022.7 mb 0.00 in0.0 mm 0.00 in0.0 mm 0.09 in2.3 mm
12:19 PM 56.9°F13.8°C 49.1°F9.5°C 75% 6.0 mph SSW9.7 kmh SSW 12.0 mph19.3 kmh 30.20 in1022.7 mb 0.00 in0.0 mm 0.00 in0.0 mm 0.09 in2.3 mm
12:35 PM 57.3°F14.1°C 48.0°F8.9°C 71% 9.0 mph SW14.5 kmh SW 11.0 mph17.7 kmh 30.20 in1022.7 mb 0.00 in0.0 mm 0.00 in0.0 mm 0.09 in2.3 mm
12:40 PM 57.3°F14.1°C 46.8°F8.2°C 68% 8.0 mph S12.9 kmh S 9.0 mph14.5 kmh 30.20 in1022.7 mb 0.00 in0.0 mm 0.00 in0.0 mm 0.09 in2.3 mm
12:55 PM 57.4°F14.1°C 47.7°F8.7°C 70% 5.0 mph S8.0 kmh S 11.0 mph17.7 kmh 30.20 in1022.7 mb 0.00 in0.0 mm 0.00 in0.0 mm 0.09 in2.3 mm
12:59 PM 57.7°F14.3°C 47.2°F8.4°C 68% 4.0 mph SW6.4 kmh SW 11.0 mph17.7 kmh 30.21 in1023.0 mb 0.00 in0.0 mm 0.00 in0.0 mm 0.09 in2.3 mm
01:15 PM 58.2°F14.6°C 47.7°F8.7°C 68% 5.0 mph SW8.0 kmh SW 11.0 mph17.7 kmh 30.21 in1023.0 mb 0.00 in0.0 mm 0.00 in0.0 mm 0.09 in2.3 mm
01:20 PM 58.4°F14.7°C 48.3°F9.1°C 69% 9.0 mph SSW14.5 kmh SSW 11.0 mph17.7 kmh 30.21 in1023.0 mb 0.00 in0.0 mm 0.00 in0.0 mm 0.09 in2.3 mm
01:35 PM 58.4°F14.7°C 47.1°F8.4°C 66% 3.0 mph SSW4.8 kmh SSW 11.0 mph17.7 kmh 30.21 in1023.0 mb 0.00 in0.0 mm 0.00 in0.0 mm 0.09 in2.3 mm
01:40 PM 58.6°F14.8°C 47.7°F8.7°C 67% 7.0 mph SSW11.3 kmh SSW 11.0 mph17.7 kmh 30.21 in1023.0 mb 0.00 in0.0 mm 0.00 in0.0 mm 0.09 in2.3 mm
01:55 PM 58.9°F14.9°C 48.0°F8.9°C 67% 6.0 mph SW9.7 kmh SW 9.0 mph14.5 kmh 30.21 in1023.0 mb 0.00 in0.0 mm 0.00 in0.0 mm 0.09 in2.3 mm
02:00 PM 58.8°F14.9°C 47.9°F8.8°C 67% 5.0 mph SSW8.0 kmh SSW 5.0 mph8.0 kmh 30.21 in1023.0 mb 0.00 in0.0 mm 0.00 in0.0 mm 0.09 in2.3 mm
02:15 PM 58.8°F14.9°C 48.7°F9.3°C 69% 6.0 mph SW9.7 kmh SW 8.0 mph12.9 kmh 30.21 in1023.0 mb 0.00 in0.0 mm 0.00 in0.0 mm 0.09 in2.3 mm
02:25 PM 59.1°F15.1°C 47.4°F8.6°C 65% 5.0 mph SW8.0 kmh SW 7.0 mph11.3 kmh 30.22 in1023.4 mb 0.00 in0.0 mm 0.00 in0.0 mm 0.09 in2.3 mm
02:30 PM 59.1°F15.1°C 48.2°F9.0°C 67% 2.0 mph SSW3.2 kmh SSW 8.0 mph12.9 kmh 30.22 in1023.4 mb 0.00 in0.0 mm 0.00 in0.0 mm 0.09 in2.3 mm
02:45 PM 59.3°F15.2°C 47.6°F8.7°C 65% 5.0 mph SW8.0 kmh SW 7.0 mph11.3 kmh 30.22 in1023.4 mb 0.00 in0.0 mm 0.00 in0.0 mm 0.09 in2.3 mm
02:50 PM 59.4°F15.2°C 48.1°F8.9°C 66% 5.0 mph SW8.0 kmh SW 5.0 mph8.0 kmh 30.22 in1023.4 mb 0.00 in0.0 mm 0.00 in0.0 mm 0.09 in2.3 mm
03:04 PM 59.3°F15.2°C 47.1°F8.4°C 64% 5.0 mph WSW8.0 kmh WSW 8.0 mph12.9 kmh 30.22 in1023.4 mb 0.00 in0.0 mm 0.00 in0.0 mm 0.09 in2.3 mm
03:10 PM 59.5°F15.3°C 47.7°F8.7°C 65% 3.0 mph WNW4.8 kmh WNW 8.0 mph12.9 kmh 30.22 in1023.4 mb 0.00 in0.0 mm 0.00 in0.0 mm 0.09 in2.3 mm
03:24 PM 59.3°F15.2°C 47.1°F8.4°C 64% 6.0 mph W9.7 kmh W 6.0 mph9.7 kmh 30.22 in1023.4 mb 0.00 in0.0 mm 0.00 in0.0 mm 0.09 in2.3 mm
03:30 PM 59.0°F15.0°C 46.0°F7.8°C 62% 4.0 mph W6.4 kmh W 7.0 mph11.3 kmh 30.22 in1023.4 mb 0.00 in0.0 mm 0.00 in0.0 mm 0.09 in2.3 mm
03:45 PM 59.5°F15.3°C 46.5°F8.1°C 62% Calm Calm 6.0 mph9.7 kmh 30.22 in1023.4 mb 0.00 in0.0 mm 0.00 in0.0 mm 0.09 in2.3 mm
03:50 PM 59.1°F15.1°C 46.5°F8.1°C 63% 3.0 mph WSW4.8 kmh WSW 7.0 mph11.3 kmh 30.23 in1023.7 mb 0.00 in0.0 mm 0.00 in0.0 mm 0.09 in2.3 mm
04:05 PM 59.0°F15.0°C 46.0°F7.8°C 62% 3.0 mph WSW4.8 kmh WSW 7.0 mph11.3 kmh 30.22 in1023.4 mb 0.00 in0.0 mm 0.00 in0.0 mm 0.09 in2.3 mm
04:10 PM 59.2°F15.1°C 45.3°F7.4°C 60% 2.0 mph W3.2 kmh W 7.0 mph11.3 kmh 30.23 in1023.7 mb 0.00 in0.0 mm 0.00 in0.0 mm 0.09 in2.3 mm
04:24 PM 59.3°F15.2°C 47.1°F8.4°C 64% 5.0 mph WSW8.0 kmh WSW 9.0 mph14.5 kmh 30.23 in1023.7 mb 0.00 in0.0 mm 0.00 in0.0 mm 0.09 in2.3 mm
04:30 PM 59.5°F15.3°C 46.9°F8.3°C 63% 2.0 mph W3.2 kmh W 9.0 mph14.5 kmh 30.23 in1023.7 mb 0.00 in0.0 mm 0.00 in0.0 mm 0.09 in2.3 mm
04:45 PM 59.4°F15.2°C 46.8°F8.2°C 63% 2.0 mph WSW3.2 kmh WSW 7.0 mph11.3 kmh 30.24 in1024.0 mb 0.00 in0.0 mm 0.00 in0.0 mm 0.09 in2.3 mm
04:50 PM 59.4°F15.2°C 46.4°F8.0°C 62% 2.0 mph W3.2 kmh W 7.0 mph11.3 kmh 30.24 in1024.0 mb 0.00 in0.0 mm 0.00 in0.0 mm 0.09 in2.3 mm
05:05 PM 59.0°F15.0°C 46.4°F8.0°C 63% 6.0 mph SW9.7 kmh SW 7.0 mph11.3 kmh 30.24 in1024.0 mb 0.00 in0.0 mm 0.00 in0.0 mm 0.09 in2.3 mm
05:10 PM 58.9°F14.9°C 45.9°F7.7°C 62% 4.0 mph W6.4 kmh W 7.0 mph11.3 kmh 30.24 in1024.0 mb 0.00 in0.0 mm 0.00 in0.0 mm 0.09 in2.3 mm
05:25 PM 59.3°F15.2°C 45.9°F7.7°C 61% 3.0 mph WSW4.8 kmh WSW 6.0 mph9.7 kmh 30.25 in1024.4 mb 0.00 in0.0 mm 0.00 in0.0 mm 0.09 in2.3 mm
05:30 PM 59.3°F15.2°C 45.9°F7.7°C 61% 3.0 mph WSW4.8 kmh WSW 6.0 mph9.7 kmh 30.25 in1024.4 mb 0.00 in0.0 mm 0.00 in0.0 mm 0.09 in2.3 mm
05:45 PM 59.3°F15.2°C 45.9°F7.7°C 61% 6.0 mph W9.7 kmh W 6.0 mph9.7 kmh 30.25 in1024.4 mb 0.00 in0.0 mm 0.00 in0.0 mm 0.09 in2.3 mm
05:50 PM 59.3°F15.2°C 45.9°F7.7°C 61% 3.0 mph W4.8 kmh W 3.0 mph4.8 kmh 30.25 in1024.4 mb 0.00 in0.0 mm 0.00 in0.0 mm 0.09 in2.3 mm
06:05 PM 59.5°F15.3°C 45.2°F7.3°C 59% 2.0 mph W3.2 kmh W 5.0 mph8.0 kmh 30.25 in1024.4 mb 0.00 in0.0 mm 0.00 in0.0 mm 0.09 in2.3 mm
06:10 PM 59.6°F15.3°C 45.3°F7.4°C 59% 2.0 mph W3.2 kmh W 3.0 mph4.8 kmh 30.25 in1024.4 mb 0.00 in0.0 mm 0.00 in0.0 mm 0.09 in2.3 mm
06:25 PM 59.1°F15.1°C 45.2°F7.3°C 60% 5.0 mph W8.0 kmh W 5.0 mph8.0 kmh 30.25 in1024.4 mb 0.00 in0.0 mm 0.00 in0.0 mm 0.09 in2.3 mm
06:30 PM 59.0°F15.0°C 45.2°F7.3°C 60% 3.0 mph W4.8 kmh W 3.0 mph4.8 kmh 30.25 in1024.4 mb 0.00 in0.0 mm 0.00 in0.0 mm 0.09 in2.3 mm
06:45 PM 57.6°F14.2°C 44.7°F7.1°C 62% 4.0 mph WSW6.4 kmh WSW 5.0 mph8.0 kmh 30.25 in1024.4 mb 0.00 in0.0 mm 0.00 in0.0 mm 0.09 in2.3 mm
06:49 PM 57.2°F14.0°C 44.7°F7.1°C 63% 3.0 mph WSW4.8 kmh WSW 5.0 mph8.0 kmh 30.25 in1024.4 mb 0.00 in0.0 mm 0.00 in0.0 mm 0.09 in2.3 mm
07:04 PM 56.4°F13.6°C 44.4°F6.9°C 64% 2.0 mph WSW3.2 kmh WSW 4.0 mph6.4 kmh 30.25 in1024.4 mb 0.00 in0.0 mm 0.00 in0.0 mm 0.09 in2.3 mm
07:10 PM 56.1°F13.4°C 44.5°F6.9°C 65% 3.0 mph WSW4.8 kmh WSW 4.0 mph6.4 kmh 30.25 in1024.4 mb 0.00 in0.0 mm 0.00 in0.0 mm 0.09 in2.3 mm
07:25 PM 55.5°F13.1°C 44.7°F7.1°C 67% 3.0 mph SW4.8 kmh SW 4.0 mph6.4 kmh 30.26 in1024.7 mb 0.00 in0.0 mm 0.00 in0.0 mm 0.09 in2.3 mm
07:29 PM 55.3°F12.9°C 44.2°F6.8°C 66% 3.0 mph WSW4.8 kmh WSW 5.0 mph8.0 kmh 30.26 in1024.7 mb 0.00 in0.0 mm 0.00 in0.0 mm 0.09 in2.3 mm
07:45 PM 54.8°F12.7°C 44.5°F6.9°C 68% 2.0 mph SW3.2 kmh SW 3.0 mph4.8 kmh 30.27 in1025.1 mb 0.00 in0.0 mm 0.00 in0.0 mm 0.09 in2.3 mm
07:49 PM 54.6°F12.6°C 44.3°F6.8°C 68% 2.0 mph SW3.2 kmh SW 3.0 mph4.8 kmh 30.27 in1025.1 mb 0.00 in0.0 mm 0.00 in0.0 mm 0.09 in2.3 mm
08:05 PM 53.9°F12.2°C 44.7°F7.1°C 71% 2.0 mph WSW3.2 kmh WSW 4.0 mph6.4 kmh 30.27 in1025.1 mb 0.00 in0.0 mm 0.00 in0.0 mm 0.09 in2.3 mm
08:10 PM 53.6°F12.0°C 44.8°F7.1°C 72% 3.0 mph WSW4.8 kmh WSW 4.0 mph6.4 kmh 30.27 in1025.1 mb 0.00 in0.0 mm 0.00 in0.0 mm 0.09 in2.3 mm
08:25 PM 52.7°F11.5°C 45.0°F7.2°C 75% 1.0 mph WSW1.6 kmh WSW 2.0 mph3.2 kmh 30.28 in1025.4 mb 0.00 in0.0 mm 0.00 in0.0 mm 0.09 in2.3 mm
08:30 PM 52.5°F11.4°C 45.2°F7.3°C 76% Calm Calm 2.0 mph3.2 kmh 30.28 in1025.4 mb 0.00 in0.0 mm 0.00 in0.0 mm 0.09 in2.3 mm
08:45 PM 51.7°F10.9°C 44.7°F7.1°C 77% Calm Calm -- 30.29 in1025.7 mb 0.00 in0.0 mm 0.00 in0.0 mm 0.09 in2.3 mm
08:50 PM 51.4°F10.8°C 44.8°F7.1°C 78% Calm Calm -- 30.29 in1025.7 mb 0.00 in0.0 mm 0.00 in0.0 mm 0.09 in2.3 mm
09:04 PM 50.6°F10.3°C 44.3°F6.8°C 79% Calm Calm -- 30.30 in1026.1 mb 0.00 in0.0 mm 0.00 in0.0 mm 0.09 in2.3 mm
09:10 PM 50.4°F10.2°C 44.5°F6.9°C 80% Calm Calm 2.0 mph3.2 kmh 30.30 in1026.1 mb 0.00 in0.0 mm 0.00 in0.0 mm 0.09 in2.3 mm
09:25 PM 49.7°F9.8°C 44.1°F6.7°C 81% 1.0 mph SW1.6 kmh SW 2.0 mph3.2 kmh 30.31 in1026.4 mb 0.00 in0.0 mm 0.00 in0.0 mm 0.09 in2.3 mm
09:30 PM 49.6°F9.8°C 44.0°F6.7°C 81% 1.0 mph SW1.6 kmh SW 2.0 mph3.2 kmh 30.31 in1026.4 mb 0.00 in0.0 mm 0.00 in0.0 mm 0.09 in2.3 mm
09:45 PM 49.4°F9.7°C 44.8°F7.1°C 84% Calm Calm -- 30.32 in1026.8 mb 0.00 in0.0 mm 0.00 in0.0 mm 0.09 in2.3 mm
09:50 PM 49.3°F9.6°C 44.7°F7.1°C 84% Calm Calm -- 30.32 in1026.8 mb 0.00 in0.0 mm 0.00 in0.0 mm 0.09 in2.3 mm
10:05 PM 48.9°F9.4°C 44.3°F6.8°C 84% Calm Calm -- 30.32 in1026.8 mb 0.00 in0.0 mm 0.00 in0.0 mm 0.09 in2.3 mm
10:10 PM 48.7°F9.3°C 44.1°F6.7°C 84% Calm Calm -- 30.33 in1027.1 mb 0.00 in0.0 mm 0.00 in0.0 mm 0.09 in2.3 mm
10:25 PM 48.1°F8.9°C 43.8°F6.6°C 85% Calm Calm -- 30.33 in1027.1 mb 0.00 in0.0 mm 0.00 in0.0 mm 0.09 in2.3 mm
10:29 PM 48.0°F8.9°C 44.0°F6.7°C 86% Calm Calm -- 30.33 in1027.1 mb 0.00 in0.0 mm 0.00 in0.0 mm 0.09 in2.3 mm
10:45 PM 47.4°F8.6°C 43.1°F6.2°C 85% Calm Calm -- 30.33 in1027.1 mb 0.00 in0.0 mm 0.00 in0.0 mm 0.09 in2.3 mm
10:50 PM 47.1°F8.4°C 43.1°F6.2°C 86% Calm Calm -- 30.34 in1027.4 mb 0.00 in0.0 mm 0.00 in0.0 mm 0.09 in2.3 mm
11:05 PM 46.5°F8.1°C 42.9°F6.1°C 87% Calm Calm -- 30.34 in1027.4 mb 0.00 in0.0 mm 0.00 in0.0 mm 0.09 in2.3 mm
11:10 PM 46.4°F8.0°C 43.1°F6.2°C 88% Calm Calm -- 30.34 in1027.4 mb 0.00 in0.0 mm 0.00 in0.0 mm 0.09 in2.3 mm
11:25 PM 46.0°F7.8°C 42.7°F5.9°C 88% Calm Calm -- 30.35 in1027.8 mb 0.00 in0.0 mm 0.00 in0.0 mm 0.09 in2.3 mm
11:30 PM 45.9°F7.7°C 42.6°F5.9°C 88% Calm Calm -- 30.35 in1027.8 mb 0.00 in0.0 mm 0.00 in0.0 mm 0.09 in2.3 mm
11:45 PM 45.5°F7.5°C 42.5°F5.8°C 89% Calm Calm -- 30.35 in1027.8 mb 0.00 in0.0 mm 0.00 in0.0 mm 0.09 in2.3 mm
11:50 PM 45.5°F7.5°C 42.5°F5.8°C 89% Calm Calm -- 30.35 in1027.8 mb 0.00 in0.0 mm 0.00 in0.0 mm 0.09 in2.3 mm